Time;durP1;ratioP1;P1;durP2;ratioP2;P2;SDS_P1;SDS_P2;PMS_P1;PMS_P2;Temp;Humidity;BMP_temperature;BMP_pressure;BME280_temperature;BME280_humidity;BME280_pressure;Samples;Min_cycle;Max_cycle;Signal;HPM_P1;HPM_P2
2022/07/17 00:01:55;;;;;;;5.87;2.17;;;;;;;;;;5035363;28;20225;-77
2022/07/17 00:04:59;;;;;;;5.23;2.23;;;;;;;;;;5024702;28;20184;-77
2022/07/17 00:08:08;;;;;;;4.80;2.27;;;;;;;;;;5036577;28;20196;-77
2022/07/17 00:11:12;;;;;;;4.00;2.20;;;;;;;;;;5036017;28;20689;-77
2022/07/17 00:14:17;;;;;;;2.43;2.10;;;;;;;;;;5016451;28;20629;-77
2022/07/17 00:17:21;;;;;;;6.47;2.30;;;;;;;;;;5016820;28;20632;-77
2022/07/17 00:20:26;;;;;;;5.33;2.47;;;;;;;;;;5004678;28;20178;-76
2022/07/17 00:23:31;;;;;;;4.87;2.40;;;;;;;;;;5034562;28;20180;-77
2022/07/17 00:26:35;;;;;;;6.57;2.53;;;;;;;;;;5035332;28;20528;-77
2022/07/17 00:29:39;;;;;;;3.50;1.97;;;;;;;;;;5036088;28;20185;-77
2022/07/17 00:32:44;;;;;;;5.13;2.30;;;;;;;;;;5036025;28;20185;-77
2022/07/17 00:35:48;;;;;;;4.50;2.20;;;;;;;;;;5023686;28;20208;-77
2022/07/17 00:38:52;;;;;;;3.40;2.53;;;;;;;;;;5023748;28;20204;-77
2022/07/17 00:41:57;;;;;;;3.83;2.23;;;;;;;;;;5011976;28;20686;-77
2022/07/17 00:45:00;;;;;;;4.20;2.63;;;;;;;;;;5012831;28;20662;-77
2022/07/17 00:48:09;;;;;;;2.63;2.37;;;;;;;;;;5035683;28;20200;-77
2022/07/17 00:51:13;;;;;;;7.07;2.50;;;;;;;;;;5003967;28;20213;-77
2022/07/17 00:54:19;;;;;;;4.50;2.57;;;;;;;;;;5023850;28;20185;-77
2022/07/17 00:57:25;;;;;;;4.70;2.30;;;;;;;;;;5036230;28;20180;-77
2022/07/17 01:00:30;;;;;;;4.33;2.23;;;;;;;;;;5034747;28;20204;-77
2022/07/17 01:03:34;;;;;;;2.50;2.23;;;;;;;;;;5023083;28;20193;-77
2022/07/17 01:06:38;;;;;;;4.63;2.30;;;;;;;;;;5023680;28;20181;-77
2022/07/17 01:09:42;;;;;;;4.57;2.37;;;;;;;;;;5023835;28;20172;-77
2022/07/17 01:12:47;;;;;;;3.50;2.30;;;;;;;;;;5023518;28;20180;-77
2022/07/17 01:15:52;;;;;;;2.77;2.47;;;;;;;;;;5023245;28;20181;-77
2022/07/17 01:18:56;;;;;;;3.53;2.17;;;;;;;;;;5015020;28;20181;-77
2022/07/17 01:22:00;;;;;;;3.30;2.47;;;;;;;;;;5006417;28;20232;-77
2022/07/17 01:25:05;;;;;;;6.20;2.50;;;;;;;;;;5034135;28;20193;-77
2022/07/17 01:28:09;;;;;;;6.37;2.73;;;;;;;;;;5022842;28;20196;-77
2022/07/17 01:31:13;;;;;;;6.07;2.57;;;;;;;;;;5035119;28;20212;-77
2022/07/17 01:34:17;;;;;;;3.67;2.30;;;;;;;;;;5003794;28;20185;-77
2022/07/17 01:37:23;;;;;;;4.20;2.30;;;;;;;;;;5017672;28;20533;-77
2022/07/17 01:40:26;;;;;;;6.20;2.70;;;;;;;;;;5034422;28;20181;-77
2022/07/17 01:43:30;;;;;;;2.67;2.30;;;;;;;;;;5022331;28;20189;-77
2022/07/17 01:46:34;;;;;;;6.30;2.40;;;;;;;;;;5034266;28;20177;-77
2022/07/17 01:49:42;;;;;;;3.93;2.10;;;;;;;;;;5022357;28;20188;-77
2022/07/17 01:52:46;;;;;;;4.37;2.70;;;;;;;;;;5022320;28;20200;-77
2022/07/17 01:55:50;;;;;;;3.63;2.67;;;;;;;;;;5033221;28;20656;-77
2022/07/17 01:58:54;;;;;;;3.40;2.60;;;;;;;;;;5035209;28;20173;-77
2022/07/17 02:01:58;;;;;;;6.43;3.00;;;;;;;;;;5022374;28;20224;-77
2022/07/17 02:05:03;;;;;;;2.90;2.60;;;;;;;;;;5034153;28;20181;-77
2022/07/17 02:08:07;;;;;;;11.67;2.60;;;;;;;;;;5022365;28;20201;-77
2022/07/17 02:11:11;;;;;;;5.33;3.00;;;;;;;;;;5022707;28;20220;-76
2022/07/17 02:14:16;;;;;;;5.17;3.30;;;;;;;;;;5013402;28;20188;-77
2022/07/17 02:17:20;;;;;;;4.90;2.80;;;;;;;;;;5021330;28;20204;-77
2022/07/17 02:20:24;;;;;;;6.60;2.60;;;;;;;;;;5033936;28;20196;-77
2022/07/17 02:23:28;;;;;;;6.73;2.90;;;;;;;;;;5032960;28;20212;-77
2022/07/17 02:26:32;;;;;;;5.37;2.77;;;;;;;;;;5010376;28;20667;-77
2022/07/17 02:29:37;;;;;;;4.20;2.40;;;;;;;;;;5033347;28;20200;-77
2022/07/17 02:32:42;;;;;;;4.30;2.77;;;;;;;;;;5033747;28;20197;-77
2022/07/17 02:35:46;;;;;;;4.10;2.80;;;;;;;;;;5033299;28;20181;-77
2022/07/17 02:38:51;;;;;;;9.83;3.00;;;;;;;;;;5021883;28;20180;-77
2022/07/17 02:41:55;;;;;;;3.70;2.50;;;;;;;;;;5021390;28;20228;-78
2022/07/17 02:44:59;;;;;;;5.67;2.93;;;;;;;;;;5034142;28;20180;-77
2022/07/17 02:48:03;;;;;;;4.47;2.80;;;;;;;;;;5021283;28;20192;-77
2022/07/17 02:51:08;;;;;;;4.67;2.83;;;;;;;;;;5033041;28;20220;-77
2022/07/17 02:54:12;;;;;;;5.53;2.60;;;;;;;;;;5098182;22;20230;-85
2022/07/17 02:57:18;;;;;;;6.67;3.40;;;;;;;;;;5058506;28;20534;-85
2022/07/17 03:00:22;;;;;;;8.03;3.03;;;;;;;;;;5081337;28;20295;-85
2022/07/17 03:03:26;;;;;;;4.80;2.57;;;;;;;;;;5049602;28;20562;-84
2022/07/17 03:06:30;;;;;;;4.57;2.70;;;;;;;;;;5038420;28;20199;-84
2022/07/17 03:09:34;;;;;;;3.67;2.67;;;;;;;;;;5038248;28;20195;-84
2022/07/17 03:12:38;;;;;;;4.03;3.20;;;;;;;;;;5038606;28;20226;-86
2022/07/17 03:15:43;;;;;;;3.33;2.63;;;;;;;;;;5039153;28;20195;-84
2022/07/17 03:18:47;;;;;;;5.27;3.00;;;;;;;;;;5040140;28;20191;-84
2022/07/17 03:21:51;;;;;;;6.20;3.07;;;;;;;;;;5038589;28;20184;-85
2022/07/17 03:24:55;;;;;;;4.63;3.10;;;;;;;;;;5050581;28;20171;-84
2022/07/17 03:28:00;;;;;;;7.87;3.10;;;;;;;;;;5050176;28;20191;-85
2022/07/17 03:31:04;;;;;;;6.13;3.10;;;;;;;;;;5038434;28;20654;-86
2022/07/17 03:34:08;;;;;;;5.23;3.27;;;;;;;;;;5038784;28;20207;-86
2022/07/17 03:37:12;;;;;;;4.67;3.10;;;;;;;;;;5038315;28;20195;-85
2022/07/17 03:40:16;;;;;;;5.10;2.93;;;;;;;;;;5038109;28;20195;-85
2022/07/17 03:43:20;;;;;;;3.27;2.73;;;;;;;;;;5049411;28;20219;-85
2022/07/17 03:46:24;;;;;;;10.53;3.10;;;;;;;;;;5062178;28;20527;-83
2022/07/17 03:49:29;;;;;;;9.30;2.80;;;;;;;;;;5038633;28;20175;-86
2022/07/17 03:52:33;;;;;;;5.63;3.30;;;;;;;;;;5039691;28;20227;-84
2022/07/17 03:55:37;;;;;;;4.20;2.90;;;;;;;;;;5039900;28;20180;-84
2022/07/17 03:58:41;;;;;;;6.47;3.27;;;;;;;;;;5051467;28;20180;-84
2022/07/17 04:01:45;;;;;;;3.53;2.80;;;;;;;;;;5051700;28;20175;-84
2022/07/17 04:04:49;;;;;;;5.23;3.60;;;;;;;;;;5050795;28;20175;-86
2022/07/17 04:07:54;;;;;;;5.33;3.33;;;;;;;;;;5050180;28;20202;-83
2022/07/17 04:10:58;;;;;;;4.10;3.03;;;;;;;;;;5038028;28;20515;-86
2022/07/17 04:14:02;;;;;;;5.80;3.47;;;;;;;;;;5039869;28;20554;-84
2022/07/17 04:17:06;;;;;;;3.67;3.00;;;;;;;;;;5060374;28;20195;-84
2022/07/17 04:20:10;;;;;;;3.77;3.10;;;;;;;;;;5051326;28;20196;-84
2022/07/17 04:23:15;;;;;;;5.47;2.97;;;;;;;;;;5062552;28;20211;-84
2022/07/17 04:26:19;;;;;;;8.20;3.23;;;;;;;;;;5038107;28;20179;-86
2022/07/17 04:29:23;;;;;;;9.60;3.00;;;;;;;;;;5049385;28;20183;-84
2022/07/17 04:32:27;;;;;;;6.33;2.77;;;;;;;;;;5051277;28;20231;-84
2022/07/17 04:35:32;;;;;;;4.73;2.80;;;;;;;;;;5049169;28;20180;-85
2022/07/17 04:38:36;;;;;;;3.20;2.67;;;;;;;;;;5049479;28;20175;-85
2022/07/17 04:41:40;;;;;;;4.27;2.97;;;;;;;;;;5041360;28;20175;-86
2022/07/17 04:44:44;;;;;;;5.27;2.80;;;;;;;;;;5064188;28;20171;-86
2022/07/17 04:47:48;;;;;;;4.33;2.70;;;;;;;;;;5053136;28;20183;-85
2022/07/17 04:50:52;;;;;;;4.47;3.07;;;;;;;;;;5041146;28;20183;-85
2022/07/17 04:53:56;;;;;;;7.33;3.60;;;;;;;;;;5063433;28;20227;-85
2022/07/17 04:57:00;;;;;;;4.30;2.90;;;;;;;;;;5063775;28;20175;-84
2022/07/17 05:00:07;;;;;;;4.37;3.10;;;;;;;;;;5053714;28;20183;-84
2022/07/17 05:03:11;;;;;;;4.67;3.20;;;;;;;;;;5053507;28;20207;-84
2022/07/17 05:06:15;;;;;;;4.80;2.97;;;;;;;;;;5067318;28;20195;-83
2022/07/17 05:09:19;;;;;;;4.70;3.17;;;;;;;;;;5040485;28;20194;-83
2022/07/17 05:12:23;;;;;;;4.23;2.90;;;;;;;;;;5051963;28;20211;-83
2022/07/17 05:15:28;;;;;;;4.03;3.07;;;;;;;;;;5040703;28;20175;-83
2022/07/17 05:18:32;;;;;;;8.03;3.80;;;;;;;;;;5052027;28;20634;-82
2022/07/17 05:21:36;;;;;;;4.20;2.80;;;;;;;;;;5075533;28;20195;-82
2022/07/17 05:24:41;;;;;;;3.07;2.70;;;;;;;;;;5040452;28;20191;-84
2022/07/17 05:27:44;;;;;;;4.43;3.03;;;;;;;;;;5040439;28;20171;-84
2022/07/17 05:30:49;;;;;;;4.17;2.90;;;;;;;;;;5041056;28;20171;-84
2022/07/17 05:33:53;;;;;;;4.47;3.17;;;;;;;;;;5051813;28;20223;-84
2022/07/17 05:36:57;;;;;;;4.60;3.13;;;;;;;;;;5051730;28;20183;-83
2022/07/17 05:40:01;;;;;;;6.30;3.23;;;;;;;;;;5063113;28;20176;-83
2022/07/17 05:43:05;;;;;;;6.20;3.40;;;;;;;;;;5051774;28;20211;-84
2022/07/17 05:46:10;;;;;;;3.97;3.10;;;;;;;;;;5039690;28;20191;-84
2022/07/17 05:49:14;;;;;;;3.53;3.00;;;;;;;;;;5039917;28;20195;-84
2022/07/17 05:52:18;;;;;;;6.37;3.10;;;;;;;;;;5043569;28;20650;-84
2022/07/17 05:55:22;;;;;;;7.57;3.30;;;;;;;;;;5020412;28;20180;-84
2022/07/17 05:58:26;;;;;;;5.87;3.20;;;;;;;;;;5043053;28;20180;-84
2022/07/17 06:01:30;;;;;;;4.07;3.23;;;;;;;;;;5031052;28;20196;-84
2022/07/17 06:04:35;;;;;;;3.10;2.70;;;;;;;;;;5031224;28;20196;-84
2022/07/17 06:07:39;;;;;;;3.30;3.00;;;;;;;;;;5042388;28;20191;-84
2022/07/17 06:10:43;;;;;;;4.03;2.90;;;;;;;;;;5031548;28;20180;-84
2022/07/17 06:13:47;;;;;;;3.30;2.73;;;;;;;;;;5030925;28;20564;-84
2022/07/17 06:16:51;;;;;;;3.67;2.60;;;;;;;;;;5030995;28;20180;-86
2022/07/17 06:19:56;;;;;;;3.57;2.70;;;;;;;;;;5030820;28;20180;-83
2022/07/17 06:23:00;;;;;;;3.37;3.03;;;;;;;;;;5054068;28;20207;-83
2022/07/17 06:26:04;;;;;;;4.27;2.30;;;;;;;;;;5042086;28;20204;-83
2022/07/17 06:29:08;;;;;;;4.23;2.70;;;;;;;;;;5030397;28;20195;-83
2022/07/17 06:32:12;;;;;;;3.73;2.40;;;;;;;;;;5019689;28;20176;-83
2022/07/17 06:35:16;;;;;;;4.33;2.53;;;;;;;;;;5031075;28;20180;-83
2022/07/17 06:38:20;;;;;;;4.77;2.67;;;;;;;;;;5030658;28;20622;-86
2022/07/17 06:41:37;;;;;;;2.80;2.50;;;;;;;;;;5030702;28;20180;-86
2022/07/17 06:44:49;;;;;;;3.73;2.37;;;;;;;;;;5019305;28;20177;-84
2022/07/17 06:47:53;;;;;;;3.40;2.30;;;;;;;;;;5030602;28;20181;-85
2022/07/17 06:50:58;;;;;;;5.83;2.83;;;;;;;;;;5031790;28;20180;-84
2022/07/17 06:54:03;;;;;;;3.03;2.63;;;;;;;;;;5029645;28;20752;-85
2022/07/17 06:57:07;;;;;;;5.00;2.60;;;;;;;;;;5029087;28;20677;-84
2022/07/17 07:00:12;;;;;;;2.67;2.27;;;;;;;;;;5030384;28;20196;-85
2022/07/17 07:03:16;;;;;;;4.25;2.60;;;;;;;;;;5029504;28;20733;-84
2022/07/17 07:06:20;;;;;;;5.80;2.80;;;;;;;;;;5030747;28;20180;-85
2022/07/17 07:09:25;;;;;;;5.77;2.90;;;;;;;;;;5029885;28;20180;-85
2022/07/17 07:12:30;;;;;;;2.20;1.70;;;;;;;;;;5031666;28;20216;-83
2022/07/17 07:15:34;;;;;;;3.73;2.20;;;;;;;;;;5032894;28;20196;-83
2022/07/17 07:18:38;;;;;;;3.77;1.70;;;;;;;;;;5022090;28;20176;-83
2022/07/17 07:21:42;;;;;;;3.97;2.20;;;;;;;;;;5043952;28;20180;-83
2022/07/17 07:24:46;;;;;;;2.70;2.00;;;;;;;;;;5033547;28;20172;-83
2022/07/17 07:27:51;;;;;;;1.93;1.63;;;;;;;;;;5021709;28;20183;-83
2022/07/17 07:30:55;;;;;;;2.83;1.63;;;;;;;;;;5031914;28;20184;-83
2022/07/17 07:33:59;;;;;;;2.10;1.60;;;;;;;;;;5032976;28;20231;-83
2022/07/17 07:37:03;;;;;;;2.63;1.73;;;;;;;;;;5032032;28;20183;-83
2022/07/17 07:40:08;;;;;;;2.20;1.53;;;;;;;;;;5037835;28;20192;-83
2022/07/17 07:43:13;;;;;;;2.83;1.73;;;;;;;;;;5043350;28;20219;-83
2022/07/17 07:46:17;;;;;;;3.93;1.60;;;;;;;;;;5042747;28;20199;-84
2022/07/17 07:49:21;;;;;;;3.37;1.90;;;;;;;;;;5051097;28;20209;-84
2022/07/17 07:52:25;;;;;;;3.67;2.00;;;;;;;;;;5060565;28;20219;-84
2022/07/17 07:55:29;;;;;;;2.27;1.60;;;;;;;;;;5052205;28;20174;-84
2022/07/17 07:58:34;;;;;;;3.37;1.60;;;;;;;;;;5057003;28;20199;-84
2022/07/17 08:01:38;;;;;;;2.23;1.90;;;;;;;;;;5051404;28;20651;-84
2022/07/17 08:04:42;;;;;;;2.13;1.50;;;;;;;;;;5038895;28;20176;-83
2022/07/17 08:07:47;;;;;;;5.20;1.58;;;;;;;;;;5042496;28;20615;-84
2022/07/17 08:10:51;;;;;;;2.92;1.52;;;;;;;;;;5053446;28;20193;-86
2022/07/17 08:13:55;;;;;;;2.42;1.42;;;;;;;;;;5051067;28;20256;-84
2022/07/17 08:16:58;;;;;;;1.90;1.58;;;;;;;;;;5046613;28;20194;-84
2022/07/17 08:20:03;;;;;;;3.25;1.75;;;;;;;;;;5058814;28;20184;-84
2022/07/17 08:23:08;;;;;;;4.00;1.50;;;;;;;;;;5066747;28;20225;-84
2022/07/17 08:26:12;;;;;;;2.95;1.80;;;;;;;;;;5054371;28;20198;-84
2022/07/17 08:29:16;;;;;;;3.33;1.50;;;;;;;;;;5066227;28;20189;-84
2022/07/17 08:32:20;;;;;;;3.58;1.75;;;;;;;;;;5042089;28;20231;-84
2022/07/17 08:35:24;;;;;;;2.63;1.75;;;;;;;;;;5022016;28;20212;-84
2022/07/17 08:38:29;;;;;;;1.38;1.20;;;;;;;;;;5032890;28;20184;-84
2022/07/17 08:41:37;;;;;;;7.05;1.70;;;;;;;;;;5044879;28;20195;-84
2022/07/17 08:44:42;;;;;;;3.97;1.60;;;;;;;;;;5040367;28;20195;-84
2022/07/17 08:47:46;;;;;;;2.25;1.55;;;;;;;;;;5052858;28;20184;-84
2022/07/17 08:50:50;;;;;;;1.60;1.50;;;;;;;;;;5051680;28;20187;-84
2022/07/17 08:53:55;;;;;;;3.58;1.77;;;;;;;;;;5045253;28;20232;-84
2022/07/17 08:57:00;;;;;;;9.75;2.38;;;;;;;;;;5042331;28;20203;-84
2022/07/17 09:00:05;;;;;;;4.18;1.65;;;;;;;;;;5057742;28;20201;-85
2022/07/17 09:07:47;;;;;;;3.08;1.40;;;;;;;;;;5075950;28;20179;-91
2022/07/17 09:46:33;;;;;;;6.40;1.60;;;;;;;;;;5062985;28;20509;-88
2022/07/17 09:49:38;;;;;;;4.40;1.33;;;;;;;;;;5052286;28;20190;-88
2022/07/17 09:52:43;;;;;;;3.45;1.40;;;;;;;;;;5040465;28;20223;-88
2022/07/17 09:55:48;;;;;;;4.72;1.50;;;;;;;;;;5045192;28;20196;-88
2022/07/17 09:59:00;;;;;;;1.35;1.10;;;;;;;;;;5045402;28;20197;-88
2022/07/17 10:02:05;;;;;;;3.72;1.50;;;;;;;;;;5043944;28;20220;-87
2022/07/17 10:05:17;;;;;;;3.30;1.50;;;;;;;;;;5044313;28;20213;-87
2022/07/17 10:08:21;;;;;;;2.80;1.10;;;;;;;;;;5035683;28;20633;-87
2022/07/17 10:11:31;;;;;;;3.75;1.10;;;;;;;;;;5035665;28;20197;-87
2022/07/17 10:14:38;;;;;;;3.47;1.35;;;;;;;;;;5025900;28;20181;-87
2022/07/17 10:17:43;;;;;;;1.98;1.40;;;;;;;;;;5026632;28;20640;-86
2022/07/17 10:20:47;;;;;;;1.92;1.40;;;;;;;;;;5025623;28;20193;-87
2022/07/17 10:23:54;;;;;;;2.78;1.35;;;;;;;;;;5037170;28;20659;-87
2022/07/17 10:26:59;;;;;;;4.10;1.48;;;;;;;;;;5014409;28;20641;-86
2022/07/17 10:30:10;;;;;;;3.33;1.20;;;;;;;;;;5026080;28;20651;-87
2022/07/17 10:33:17;;;;;;;1.70;1.30;;;;;;;;;;5033319;28;20216;-87
2022/07/17 10:36:32;;;;;;;1.77;1.15;;;;;;;;;;5045352;28;20182;-87
2022/07/17 10:39:36;;;;;;;5.30;1.30;;;;;;;;;;5033054;28;20554;-86
2022/07/17 10:42:51;;;;;;;1.40;1.30;;;;;;;;;;5010933;28;20213;-87
2022/07/17 10:45:55;;;;;;;2.00;1.20;;;;;;;;;;5010557;28;20204;-87
2022/07/17 10:49:03;;;;;;;2.72;1.17;;;;;;;;;;5044669;28;20185;-87
2022/07/17 10:52:07;;;;;;;3.58;1.15;;;;;;;;;;5022139;28;20213;-87
2022/07/17 10:55:21;;;;;;;1.52;1.33;;;;;;;;;;5033365;28;20185;-87
2022/07/17 10:58:29;;;;;;;3.50;1.30;;;;;;;;;;5033418;28;20659;-87
2022/07/17 11:01:33;;;;;;;2.90;1.40;;;;;;;;;;5010110;28;20527;-87
2022/07/17 11:04:39;;;;;;;1.98;1.13;;;;;;;;;;5010832;28;20200;-87
2022/07/17 11:07:54;;;;;;;1.63;1.40;;;;;;;;;;5033294;28;20177;-87
2022/07/17 11:10:59;;;;;;;1.63;1.20;;;;;;;;;;5021880;28;20185;-87
2022/07/17 11:14:18;;;;;;;1.50;1.08;;;;;;;;;;5033064;28;20177;-87
2022/07/17 11:17:22;;;;;;;2.50;1.10;;;;;;;;;;5023725;28;20190;-87
2022/07/17 11:20:26;;;;;;;1.20;0.90;;;;;;;;;;5061948;28;20185;-87
2022/07/17 11:23:33;;;;;;;3.03;1.35;;;;;;;;;;5011765;28;20216;-87
2022/07/17 11:26:37;;;;;;;1.10;1.00;;;;;;;;;;5045218;28;20185;-87
2022/07/17 11:29:41;;;;;;;1.60;1.10;;;;;;;;;;5034272;28;20181;-85
2022/07/17 11:32:45;;;;;;;3.13;0.95;;;;;;;;;;5021922;28;20675;-86
2022/07/17 11:35:49;;;;;;;1.80;1.13;;;;;;;;;;5033869;28;20185;-85
2022/07/17 11:38:55;;;;;;;2.10;1.02;;;;;;;;;;5033887;28;20177;-85
2022/07/17 11:41:59;;;;;;;2.55;1.17;;;;;;;;;;5045402;28;20212;-86
2022/07/17 11:45:04;;;;;;;2.00;1.20;;;;;;;;;;5012072;28;20200;-87
2022/07/17 11:48:08;;;;;;;1.85;1.00;;;;;;;;;;5033483;28;20185;-87
2022/07/17 11:51:12;;;;;;;1.00;0.90;;;;;;;;;;5037140;28;20189;-87
2022/07/17 11:54:16;;;;;;;1.67;1.08;;;;;;;;;;5038665;28;20173;-87
2022/07/17 11:57:21;;;;;;;2.53;0.80;;;;;;;;;;5026425;28;20185;-87
2022/07/17 12:00:25;;;;;;;1.70;1.10;;;;;;;;;;5025944;28;20181;-87
2022/07/17 12:03:29;;;;;;;2.70;1.08;;;;;;;;;;5037669;28;20252;-87
2022/07/17 12:06:33;;;;;;;2.38;1.10;;;;;;;;;;5026625;28;20177;-87
2022/07/17 12:09:38;;;;;;;1.77;0.90;;;;;;;;;;5048273;28;20551;-87
2022/07/17 12:12:53;;;;;;;1.33;0.90;;;;;;;;;;5015200;28;20603;-87
2022/07/17 12:15:58;;;;;;;2.42;1.10;;;;;;;;;;5026738;28;20185;-87
2022/07/17 12:19:03;;;;;;;2.80;1.08;;;;;;;;;;5015325;28;20185;-87
2022/07/17 12:22:07;;;;;;;3.13;1.15;;;;;;;;;;5014951;28;20217;-87
2022/07/17 12:25:25;;;;;;;3.28;1.02;;;;;;;;;;5025899;28;20204;-87
2022/07/17 12:28:30;;;;;;;2.55;1.25;;;;;;;;;;5038567;28;20185;-88
2022/07/17 12:31:34;;;;;;;1.55;1.00;;;;;;;;;;5020240;28;20181;-87
2022/07/17 12:34:47;;;;;;;3.55;1.10;;;;;;;;;;5030072;28;20624;-87
2022/07/17 12:37:51;;;;;;;1.00;0.80;;;;;;;;;;5025404;28;20190;-87
2022/07/17 12:40:56;;;;;;;1.38;0.95;;;;;;;;;;5036034;28;20181;-87
2022/07/17 12:44:00;;;;;;;2.25;1.00;;;;;;;;;;5015449;28;20177;-87
2022/07/17 12:47:05;;;;;;;1.75;0.98;;;;;;;;;;5025180;28;20170;-87
2022/07/17 12:50:09;;;;;;;1.60;0.90;;;;;;;;;;5036403;28;20181;-87
2022/07/17 12:53:13;;;;;;;3.25;1.10;;;;;;;;;;5035670;28;20216;-87
2022/07/17 12:56:17;;;;;;;2.05;1.05;;;;;;;;;;5013485;28;20620;-87
2022/07/17 12:59:22;;;;;;;1.10;0.90;;;;;;;;;;5036082;28;20188;-87
2022/07/17 13:02:25;;;;;;;2.03;1.17;;;;;;;;;;5023254;28;20220;-87
2022/07/17 13:05:30;;;;;;;1.10;0.90;;;;;;;;;;5035630;28;20217;-87
2022/07/17 13:08:34;;;;;;;1.92;1.15;;;;;;;;;;5024150;28;20185;-87
2022/07/17 13:11:43;;;;;;;1.10;1.00;;;;;;;;;;5046993;28;20178;-87
2022/07/17 13:14:47;;;;;;;2.88;1.00;;;;;;;;;;5036524;28;20225;-87
2022/07/17 13:17:51;;;;;;;1.40;0.80;;;;;;;;;;5024394;28;20636;-87
2022/07/17 13:20:55;;;;;;;1.17;1.05;;;;;;;;;;5047608;28;20173;-87
2022/07/17 13:24:00;;;;;;;2.20;1.05;;;;;;;;;;5024315;28;20181;-87
2022/07/17 13:27:04;;;;;;;1.40;1.10;;;;;;;;;;5013426;28;20169;-87
2022/07/17 13:30:09;;;;;;;1.30;1.05;;;;;;;;;;5012928;28;20190;-87
2022/07/17 13:33:13;;;;;;;1.13;1.02;;;;;;;;;;5024559;28;20703;-87
2022/07/17 13:36:17;;;;;;;1.10;1.00;;;;;;;;;;5048482;28;20616;-87
2022/07/17 13:39:20;;;;;;;1.73;0.90;;;;;;;;;;5025893;28;20181;-87
2022/07/17 13:42:25;;;;;;;3.15;1.20;;;;;;;;;;5024845;28;20221;-87
2022/07/17 13:45:29;;;;;;;1.30;0.80;;;;;;;;;;5013025;28;20209;-87
2022/07/17 13:48:33;;;;;;;1.27;1.10;;;;;;;;;;5012854;28;20185;-87
2022/07/17 13:51:39;;;;;;;1.23;0.80;;;;;;;;;;5013079;28;20181;-87
2022/07/17 13:54:43;;;;;;;1.10;1.00;;;;;;;;;;5012840;28;20185;-87
2022/07/17 13:57:47;;;;;;;1.40;0.90;;;;;;;;;;5023837;28;20177;-87
2022/07/17 14:00:51;;;;;;;1.70;0.90;;;;;;;;;;5012123;28;20514;-87
2022/07/17 14:03:55;;;;;;;1.83;1.00;;;;;;;;;;5046928;28;20177;-87
2022/07/17 14:06:59;;;;;;;0.98;0.90;;;;;;;;;;5012835;28;20201;-87
2022/07/17 14:10:04;;;;;;;2.35;1.00;;;;;;;;;;5034588;28;20208;-87
2022/07/17 14:13:08;;;;;;;1.52;1.00;;;;;;;;;;5023574;28;20212;-87
2022/07/17 14:16:12;;;;;;;1.77;1.00;;;;;;;;;;5024312;28;20177;-87
2022/07/17 14:19:16;;;;;;;2.35;0.90;;;;;;;;;;5023962;28;20192;-87
2022/07/17 14:22:22;;;;;;;1.48;1.05;;;;;;;;;;5023174;28;20231;-87
2022/07/17 14:25:26;;;;;;;1.30;1.00;;;;;;;;;;5034944;28;20213;-87
2022/07/17 14:28:31;;;;;;;2.30;0.90;;;;;;;;;;5011755;28;20177;-87
2022/07/17 14:31:36;;;;;;;3.70;0.82;;;;;;;;;;5022454;28;20177;-87
2022/07/17 14:34:40;;;;;;;1.27;0.88;;;;;;;;;;5034121;28;20177;-87
2022/07/17 14:37:43;;;;;;;2.25;0.98;;;;;;;;;;5034047;28;20687;-87
2022/07/17 14:40:47;;;;;;;1.92;0.90;;;;;;;;;;5045581;28;20667;-87
2022/07/17 14:43:53;;;;;;;1.75;0.90;;;;;;;;;;5010858;28;20181;-87
2022/07/17 14:46:58;;;;;;;1.83;1.08;;;;;;;;;;5022344;28;20213;-88
2022/07/17 14:50:03;;;;;;;2.00;0.85;;;;;;;;;;5011969;28;20632;-89
2022/07/17 14:53:08;;;;;;;2.60;0.93;;;;;;;;;;5030342;28;20220;-87
2022/07/17 14:56:12;;;;;;;2.13;1.08;;;;;;;;;;5041822;28;20176;-88
2022/07/17 14:59:16;;;;;;;1.98;0.75;;;;;;;;;;5031047;28;20172;-87
2022/07/17 15:02:21;;;;;;;1.10;0.90;;;;;;;;;;5073510;22;20232;-85
2022/07/17 15:05:25;;;;;;;1.83;0.80;;;;;;;;;;5000748;28;20209;-85
2022/07/17 15:08:30;;;;;;;0.90;0.80;;;;;;;;;;5023272;28;20178;-84
2022/07/17 15:11:34;;;;;;;2.00;0.80;;;;;;;;;;5002070;28;20169;-84
2022/07/17 15:14:38;;;;;;;1.08;0.80;;;;;;;;;;5023379;28;20197;-85
2022/07/17 15:17:43;;;;;;;1.52;1.00;;;;;;;;;;5012002;28;20197;-84
2022/07/17 15:20:47;;;;;;;1.10;1.00;;;;;;;;;;5022867;28;20200;-84
2022/07/17 15:23:51;;;;;;;1.25;1.00;;;;;;;;;;5010305;28;20225;-84
2022/07/17 15:26:55;;;;;;;1.10;0.90;;;;;;;;;;5023605;28;20556;-85
2022/07/17 15:30:00;;;;;;;1.00;0.90;;;;;;;;;;5010892;28;20204;-85
2022/07/17 15:33:04;;;;;;;1.42;0.70;;;;;;;;;;5011872;28;20213;-85
2022/07/17 15:36:09;;;;;;;1.02;0.90;;;;;;;;;;5011865;28;20197;-85
2022/07/17 15:39:14;;;;;;;1.88;1.10;;;;;;;;;;4997715;28;20201;-85
2022/07/17 15:42:18;;;;;;;1.05;0.90;;;;;;;;;;5028385;28;20225;-85
2022/07/17 15:45:22;;;;;;;2.85;0.68;;;;;;;;;;5017483;28;20200;-85
2022/07/17 15:48:26;;;;;;;0.80;0.80;;;;;;;;;;4997759;28;20201;-84
2022/07/17 15:51:30;;;;;;;2.67;0.70;;;;;;;;;;5021350;28;20575;-84
2022/07/17 15:54:34;;;;;;;1.25;0.93;;;;;;;;;;4981500;28;20178;-84
2022/07/17 15:57:38;;;;;;;1.77;1.13;;;;;;;;;;5020498;28;20189;-84
2022/07/17 16:00:44;;;;;;;1.83;0.95;;;;;;;;;;5012247;28;20189;-84
2022/07/17 16:03:48;;;;;;;1.67;1.00;;;;;;;;;;5028221;28;20581;-84
2022/07/17 16:06:53;;;;;;;2.65;0.90;;;;;;;;;;4980922;28;20205;-84
2022/07/17 16:09:57;;;;;;;2.03;1.10;;;;;;;;;;5005057;28;20189;-84
2022/07/17 16:13:01;;;;;;;1.20;1.10;;;;;;;;;;5011765;28;20219;-84
2022/07/17 16:16:06;;;;;;;7.47;1.23;;;;;;;;;;5011269;28;20184;-84
2022/07/17 16:19:10;;;;;;;1.40;1.00;;;;;;;;;;4985966;28;20192;-84
2022/07/17 16:22:14;;;;;;;1.00;0.90;;;;;;;;;;5011651;28;20219;-84
2022/07/17 16:25:18;;;;;;;3.22;1.08;;;;;;;;;;5013735;28;20185;-85
2022/07/17 16:28:22;;;;;;;1.20;1.00;;;;;;;;;;5004049;28;20187;-84
2022/07/17 16:31:26;;;;;;;1.63;0.90;;;;;;;;;;4992966;28;20204;-84
2022/07/17 16:34:31;;;;;;;3.80;0.95;;;;;;;;;;4988743;28;20187;-84
2022/07/17 16:37:35;;;;;;;2.95;1.15;;;;;;;;;;5003665;28;20181;-84
2022/07/17 16:40:40;;;;;;;2.75;0.93;;;;;;;;;;5003321;28;20190;-84
2022/07/17 16:43:44;;;;;;;3.33;1.10;;;;;;;;;;5011826;28;20213;-84
2022/07/17 16:46:48;;;;;;;1.95;0.88;;;;;;;;;;5005920;28;20694;-84
2022/07/17 16:49:52;;;;;;;1.17;1.05;;;;;;;;;;5017299;28;20608;-84
2022/07/17 16:52:57;;;;;;;3.55;1.10;;;;;;;;;;5017159;28;20217;-84
2022/07/17 16:56:01;;;;;;;2.00;1.10;;;;;;;;;;5014692;28;20187;-84
2022/07/17 16:59:05;;;;;;;3.33;1.05;;;;;;;;;;5001819;28;20188;-84
2022/07/17 17:02:09;;;;;;;6.00;1.35;;;;;;;;;;4988977;28;20230;-83
2022/07/17 17:05:13;;;;;;;3.53;1.10;;;;;;;;;;5003491;28;20188;-84
2022/07/17 17:08:17;;;;;;;8.40;1.48;;;;;;;;;;5014299;28;20196;-84
2022/07/17 17:11:21;;;;;;;2.60;1.20;;;;;;;;;;5017596;28;20202;-84
2022/07/17 17:14:26;;;;;;;2.13;1.20;;;;;;;;;;5009051;28;20191;-83
2022/07/17 17:17:30;;;;;;;1.58;1.00;;;;;;;;;;5006440;28;20175;-84
2022/07/17 17:20:34;;;;;;;4.25;1.10;;;;;;;;;;5018349;28;20530;-84
2022/07/17 17:23:39;;;;;;;1.27;1.02;;;;;;;;;;5013973;28;20217;-83
2022/07/17 17:26:43;;;;;;;2.95;1.08;;;;;;;;;;5031259;28;20210;-83
2022/07/17 17:29:46;;;;;;;2.65;0.93;;;;;;;;;;5006340;28;20181;-83
2022/07/17 17:32:51;;;;;;;3.08;1.20;;;;;;;;;;5024415;28;20221;-83
2022/07/17 17:35:56;;;;;;;1.27;1.17;;;;;;;;;;5003461;28;20184;-83
2022/07/17 17:39:02;;;;;;;1.67;1.10;;;;;;;;;;5025786;28;20187;-83
2022/07/17 17:42:06;;;;;;;2.92;1.20;;;;;;;;;;5014487;28;20700;-83
2022/07/17 17:45:10;;;;;;;2.75;1.13;;;;;;;;;;5002901;28;20657;-83
2022/07/17 17:48:14;;;;;;;2.05;1.05;;;;;;;;;;5036213;28;20225;-83
2022/07/17 17:51:18;;;;;;;2.13;1.02;;;;;;;;;;5004599;28;20193;-83
2022/07/17 17:54:23;;;;;;;1.20;1.10;;;;;;;;;;5003236;28;20188;-83
2022/07/17 17:57:27;;;;;;;20.23;2.42;;;;;;;;;;5014546;28;20179;-83
2022/07/17 18:00:31;;;;;;;9.50;1.95;;;;;;;;;;5015508;28;20177;-83
2022/07/17 18:03:35;;;;;;;3.70;1.33;;;;;;;;;;5014175;28;20225;-83
2022/07/17 18:06:39;;;;;;;3.78;1.40;;;;;;;;;;5021070;28;20215;-83
2022/07/17 18:09:44;;;;;;;1.60;1.00;;;;;;;;;;5004067;28;20196;-83
2022/07/17 18:12:48;;;;;;;1.57;1.10;;;;;;;;;;5036412;28;20221;-83
2022/07/17 18:15:52;;;;;;;1.63;1.00;;;;;;;;;;5013046;28;20177;-83
2022/07/17 18:18:57;;;;;;;1.37;1.00;;;;;;;;;;5004198;28;20195;-82
2022/07/17 18:22:01;;;;;;;4.70;1.13;;;;;;;;;;5011074;28;20206;-83
2022/07/17 18:25:06;;;;;;;1.73;0.97;;;;;;;;;;5005015;28;20182;-83
2022/07/17 18:28:10;;;;;;;2.20;1.17;;;;;;;;;;4993851;28;20217;-83
2022/07/17 18:31:14;;;;;;;1.60;1.17;;;;;;;;;;5004619;28;20185;-82
2022/07/17 18:34:20;;;;;;;1.80;1.10;;;;;;;;;;4994199;28;20182;-82
2022/07/17 18:37:24;;;;;;;2.40;1.10;;;;;;;;;;5005143;28;20198;-83
2022/07/17 18:40:28;;;;;;;4.97;1.30;;;;;;;;;;5005388;28;20200;-82
2022/07/17 18:43:32;;;;;;;4.80;1.50;;;;;;;;;;5024252;28;20551;-84
2022/07/17 18:46:37;;;;;;;2.30;1.07;;;;;;;;;;5002963;28;20222;-85
2022/07/17 18:49:42;;;;;;;3.70;1.30;;;;;;;;;;5013370;28;20191;-83
2022/07/17 18:52:46;;;;;;;2.17;1.23;;;;;;;;;;5012612;28;20213;-84
2022/07/17 18:55:50;;;;;;;1.87;1.20;;;;;;;;;;5001718;28;20182;-84
2022/07/17 18:58:54;;;;;;;2.60;1.10;;;;;;;;;;5022435;28;20219;-84
2022/07/17 19:01:58;;;;;;;5.40;1.50;;;;;;;;;;5023532;28;20192;-84
2022/07/17 19:05:03;;;;;;;5.40;1.20;;;;;;;;;;5000835;28;20525;-83
2022/07/17 19:08:08;;;;;;;2.40;1.07;;;;;;;;;;5004666;28;20230;-84